createdAt,value
2018-02-13T00:01:11.767Z,93.70
2018-02-13T00:03:40.806Z,93.80
2018-02-13T00:06:08.586Z,93.80
2018-02-13T00:08:36.466Z,93.60
2018-02-13T00:11:04.546Z,93.60
2018-02-13T00:13:32.507Z,93.60
2018-02-13T00:16:00.688Z,93.60
2018-02-13T00:18:29.468Z,93.60
2018-02-13T00:20:57.246Z,93.60
2018-02-13T00:23:25.087Z,93.50
2018-02-13T00:25:53.246Z,93.40
2018-02-13T00:28:22.405Z,93.40
2018-02-13T00:30:51.485Z,93.30
2018-02-13T00:33:19.288Z,93.30
2018-02-13T00:35:47.087Z,93.30
2018-02-13T00:38:15.271Z,93.20
2018-02-13T00:40:43.445Z,93.10
2018-02-13T00:43:11.648Z,93.10
2018-02-13T00:45:39.767Z,92.90
2018-02-13T00:48:07.846Z,92.80
2018-02-13T00:50:35.666Z,92.90
2018-02-13T00:53:03.526Z,92.90
2018-02-13T00:55:32.045Z,92.80
2018-02-13T00:58:00.208Z,92.80
2018-02-13T01:00:29.225Z,92.70
2018-02-13T01:02:57.373Z,92.60
2018-02-13T01:05:25.193Z,92.30
2018-02-13T01:07:52.993Z,92.20
2018-02-13T01:10:21.313Z,91.90
2018-02-13T01:12:49.354Z,91.90
2018-02-13T01:15:17.314Z,92.20
2018-02-13T01:17:45.313Z,92.50
2018-02-13T01:20:14.716Z,92.50
2018-02-13T01:22:42.973Z,92.50
2018-02-13T01:25:10.786Z,92.40
2018-02-13T01:27:38.646Z,92.40
2018-02-13T01:30:06.546Z,92.20
2018-02-13T01:32:34.427Z,92.20
2018-02-13T01:35:02.726Z,92.40
2018-02-13T01:37:31.174Z,92.60
2018-02-13T01:39:59.126Z,92.70
2018-02-13T01:42:27.085Z,92.70
2018-02-13T01:44:55.686Z,92.50
2018-02-13T01:47:23.606Z,92.50
2018-02-13T01:49:51.466Z,92.40
2018-02-13T01:52:19.446Z,92.40
2018-02-13T01:54:47.546Z,92.40
2018-02-13T01:57:15.607Z,92.50
2018-02-13T01:59:43.626Z,92.70
2018-02-13T02:02:11.706Z,92.60
2018-02-13T02:04:39.827Z,92.60
2018-02-13T02:07:07.806Z,92.50
2018-02-13T02:09:35.606Z,92.20
2018-02-13T02:12:03.907Z,92.20
2018-02-13T02:14:31.886Z,92.30
2018-02-13T02:17:00.067Z,92.40
2018-02-13T02:19:28.246Z,92.10
2018-02-13T02:21:56.146Z,91.20
2018-02-13T02:24:24.906Z,90.70
2018-02-13T02:26:53.206Z,90.70
2018-02-13T02:29:21.226Z,89.90
2018-02-13T02:31:49.486Z,91.10
2018-02-13T02:34:18.336Z,91.90
2018-02-13T02:36:46.046Z,91.90
2018-02-13T02:39:13.987Z,91.10
2018-02-13T02:41:43.327Z,88.60
2018-02-13T02:44:11.287Z,89.20
2018-02-13T02:46:39.266Z,87.00
2018-02-13T02:49:07.786Z,90.50
2018-02-13T02:51:36.406Z,90.70
2018-02-13T02:54:06.032Z,90.60
2018-02-13T02:56:34.169Z,91.30
2018-02-13T02:59:02.086Z,91.20
2018-02-13T03:01:29.968Z,87.90
2018-02-13T03:03:58.050Z,88.60
2018-02-13T03:06:26.867Z,87.00
2018-02-13T03:08:54.709Z,86.70
2018-02-13T03:11:22.948Z,88.90
2018-02-13T03:13:50.946Z,90.00
2018-02-13T03:16:18.806Z,90.50
2018-02-13T03:18:47.205Z,91.10
2018-02-13T03:21:15.485Z,91.20
2018-02-13T03:23:43.726Z,91.00
2018-02-13T03:26:11.806Z,90.90
2018-02-13T03:28:39.665Z,90.60
2018-02-13T03:31:07.486Z,89.00
2018-02-13T03:33:35.325Z,89.10
2018-02-13T03:36:03.146Z,89.80
2018-02-13T03:38:30.885Z,89.80
2018-02-13T03:40:58.706Z,87.90
2018-02-13T03:45:59.425Z,88.90
2018-02-13T03:48:27.325Z,89.10
2018-02-13T03:50:55.127Z,87.80
2018-02-13T03:53:22.926Z,84.60
2018-02-13T03:55:50.805Z,85.90
2018-02-13T03:58:19.087Z,86.70
2018-02-13T04:00:47.277Z,85.90
2018-02-13T04:03:15.209Z,88.70
2018-02-13T04:05:43.010Z,89.70
2018-02-13T04:08:10.832Z,90.10
2018-02-13T04:10:39.448Z,89.20
2018-02-13T04:13:07.977Z,89.20
2018-02-13T04:15:35.829Z,90.50
2018-02-13T04:18:03.689Z,90.90
2018-02-13T04:20:32.309Z,86.90
2018-02-13T04:23:00.409Z,86.90
2018-02-13T04:25:28.317Z,85.70
2018-02-13T04:27:56.829Z,88.60
2018-02-13T04:30:24.770Z,88.60
2018-02-13T04:32:52.689Z,88.50
2018-02-13T04:35:20.509Z,86.00
2018-02-13T04:37:48.589Z,88.70
2018-02-13T04:40:16.469Z,89.70
2018-02-13T04:42:45.713Z,90.20
2018-02-13T04:45:13.687Z,91.20
2018-02-13T04:47:42.367Z,91.00
2018-02-13T04:50:10.287Z,90.10
2018-02-13T04:52:38.167Z,89.00
2018-02-13T04:55:06.155Z,85.20
2018-02-13T04:57:33.988Z,87.80
2018-02-13T05:00:02.247Z,90.20
2018-02-13T05:02:30.467Z,91.00
2018-02-13T05:04:58.307Z,89.20
2018-02-13T05:07:26.147Z,84.50
2018-02-13T05:09:54.028Z,86.00
2018-02-13T05:12:21.992Z,87.70
2018-02-13T05:14:50.127Z,88.40
2018-02-13T05:17:18.047Z,89.10
2018-02-13T05:19:46.212Z,90.40
2018-02-13T05:22:14.167Z,90.80
2018-02-13T05:24:42.227Z,90.50
2018-02-13T05:27:10.647Z,90.10
2018-02-13T05:29:38.531Z,89.40
2018-02-13T05:32:06.448Z,89.00
2018-02-13T05:34:34.327Z,90.10
2018-02-13T05:37:02.126Z,90.50
2018-02-13T05:39:30.107Z,90.80
2018-02-13T05:41:58.007Z,91.20
2018-02-13T05:44:25.727Z,90.80
2018-02-13T05:46:53.507Z,89.50
2018-02-13T05:49:22.017Z,90.30
2018-02-13T05:51:49.687Z,90.40
2018-02-13T05:54:17.667Z,91.10
2018-02-13T05:56:46.187Z,90.40
2018-02-13T05:59:15.168Z,90.10
2018-02-13T06:01:43.451Z,90.10
2018-02-13T06:04:11.291Z,89.80
2018-02-13T06:06:39.192Z,89.40
2018-02-13T06:09:06.971Z,89.30
2018-02-13T06:11:35.101Z,89.70
2018-02-13T06:14:02.833Z,89.10
2018-02-13T06:16:30.875Z,88.40
2018-02-13T06:18:59.487Z,87.40
2018-02-13T06:21:27.332Z,88.10
2018-02-13T06:23:55.109Z,88.40
2018-02-13T06:26:22.849Z,88.60
2018-02-13T06:28:50.849Z,89.40
2018-02-13T06:31:19.049Z,89.50
2018-02-13T06:33:46.889Z,89.40
2018-02-13T06:36:14.649Z,89.50
2018-02-13T06:38:43.469Z,90.00
2018-02-13T06:41:12.089Z,90.20
2018-02-13T06:43:40.192Z,90.20
2018-02-13T06:46:08.029Z,90.30
2018-02-13T06:48:36.287Z,90.30
2018-02-13T06:51:04.129Z,90.20
2018-02-13T06:53:31.770Z,90.00
2018-02-13T06:56:01.366Z,90.00
2018-02-13T06:58:29.018Z,90.20
2018-02-13T07:00:56.698Z,90.30
2018-02-13T07:03:24.380Z,90.40
2018-02-13T07:05:52.032Z,90.40
2018-02-13T07:08:19.662Z,90.40
2018-02-13T07:10:47.591Z,90.00
2018-02-13T07:13:15.711Z,88.80
2018-02-13T07:15:44.611Z,86.40
2018-02-13T07:18:12.648Z,86.50
2018-02-13T07:20:41.009Z,87.30
2018-02-13T07:23:09.049Z,88.00
2018-02-13T07:25:36.908Z,87.70
2018-02-13T07:28:04.809Z,85.80
2018-02-13T07:30:32.976Z,85.30
2018-02-13T07:33:00.872Z,85.70
2018-02-13T07:35:28.867Z,87.10
2018-02-13T07:37:56.787Z,88.30
2018-02-13T07:40:24.667Z,89.20
2018-02-13T07:42:52.447Z,89.50
2018-02-13T07:45:20.247Z,89.50
2018-02-13T07:47:48.227Z,90.00
2018-02-13T07:50:16.128Z,90.00
2018-02-13T07:52:44.005Z,89.40
2018-02-13T07:55:11.825Z,89.70
2018-02-13T07:57:40.148Z,89.30
2018-02-13T08:00:07.945Z,89.70
2018-02-13T08:02:35.830Z,89.10
2018-02-13T08:05:03.509Z,88.10
2018-02-13T08:07:31.368Z,88.20
2018-02-13T08:09:59.269Z,88.30
2018-02-13T08:12:27.153Z,88.40
2018-02-13T08:14:54.969Z,88.10
2018-02-13T08:17:24.047Z,87.80
2018-02-13T08:19:51.967Z,87.70
2018-02-13T08:22:19.807Z,87.20
2018-02-13T08:24:47.628Z,87.40
2018-02-13T08:27:15.747Z,86.90
2018-02-13T08:29:43.967Z,87.00
2018-02-13T08:32:11.810Z,86.40
2018-02-13T08:34:39.634Z,85.90
2018-02-13T08:37:07.387Z,85.40
2018-02-13T08:39:35.288Z,85.20
2018-02-13T08:42:03.808Z,85.60
2018-02-13T08:44:31.650Z,85.60
2018-02-13T08:46:59.507Z,84.80
2018-02-13T08:49:27.407Z,84.70
2018-02-13T08:51:55.428Z,84.90
2018-02-13T08:54:23.351Z,84.40
2018-02-13T08:56:51.489Z,83.90
2018-02-13T08:59:19.568Z,84.70
2018-02-13T09:01:47.488Z,83.00
2018-02-13T09:04:15.728Z,81.60
2018-02-13T09:06:43.647Z,82.00
2018-02-13T09:09:11.405Z,81.90
2018-02-13T09:11:39.285Z,79.70
2018-02-13T09:14:07.045Z,77.30
2018-02-13T09:16:34.845Z,77.10
2018-02-13T09:19:03.406Z,76.10
2018-02-13T09:21:31.153Z,76.10
2018-02-13T09:23:59.325Z,77.40
2018-02-13T09:26:27.165Z,78.70
2018-02-13T09:28:55.065Z,80.70
2018-02-13T09:31:22.880Z,82.20
2018-02-13T09:33:50.785Z,82.50
2018-02-13T09:36:19.026Z,82.80
2018-02-13T09:38:47.145Z,82.30
2018-02-13T09:41:15.385Z,82.80
2018-02-13T09:43:44.909Z,83.10
2018-02-13T09:46:12.785Z,83.00
2018-02-13T09:48:40.607Z,82.70
2018-02-13T09:51:08.729Z,81.60
2018-02-13T09:53:36.505Z,81.30
2018-02-13T09:56:04.198Z,81.10
2018-02-13T09:58:32.865Z,82.30
2018-02-13T10:01:00.604Z,82.30
2018-02-13T10:06:01.345Z,82.00
2018-02-13T10:08:29.923Z,82.50
2018-02-13T10:10:57.825Z,82.60
2018-02-13T10:13:25.834Z,82.60
2018-02-13T10:15:53.885Z,83.10
2018-02-13T10:18:23.635Z,82.00
2018-02-13T10:20:51.505Z,82.60
2018-02-13T10:23:19.444Z,83.80
2018-02-13T10:25:47.693Z,82.30
2018-02-13T10:28:16.525Z,77.10
2018-02-13T10:30:46.408Z,77.10
2018-02-13T10:33:15.566Z,77.20
2018-02-13T10:35:43.807Z,77.10
2018-02-13T10:38:12.369Z,72.20
2018-02-13T10:40:40.365Z,72.20
2018-02-13T10:43:08.266Z,72.70
2018-02-13T10:45:36.945Z,70.30
2018-02-13T10:48:04.689Z,70.30
2018-02-13T10:50:33.046Z,71.90
2018-02-13T10:53:00.845Z,73.70
2018-02-13T10:55:28.733Z,73.80
2018-02-13T10:57:56.685Z,75.00
2018-02-13T11:00:30.227Z,75.20
2018-02-13T11:02:58.206Z,75.50
2018-02-13T11:05:26.240Z,73.40
2018-02-13T11:07:54.325Z,73.80
2018-02-13T11:10:22.174Z,74.80
2018-02-13T11:12:49.925Z,73.50
2018-02-13T11:15:17.789Z,71.70
2018-02-13T11:17:46.385Z,71.50
2018-02-13T11:20:14.166Z,71.40
2018-02-13T11:22:42.016Z,71.90
2018-02-13T11:25:10.025Z,70.70
2018-02-13T11:27:38.206Z,73.40
2018-02-13T11:30:06.086Z,72.50
2018-02-13T11:32:33.915Z,71.10
2018-02-13T11:35:01.707Z,68.90
2018-02-13T11:37:29.586Z,67.40
2018-02-13T11:39:57.413Z,67.80
2018-02-13T11:42:26.106Z,71.40
2018-02-13T11:44:54.311Z,70.10
2018-02-13T11:47:22.326Z,73.90
2018-02-13T11:49:50.294Z,74.50
2018-02-13T11:52:17.993Z,74.40
2018-02-13T11:54:46.510Z,73.70
2018-02-13T11:57:14.276Z,73.20
2018-02-13T11:59:41.928Z,72.20
2018-02-13T12:02:09.710Z,62.70
2018-02-13T12:04:39.404Z,65.90
2018-02-13T12:07:07.171Z,69.50
2018-02-13T12:09:35.008Z,69.30
2018-02-13T12:12:02.967Z,67.80
2018-02-13T12:14:30.828Z,68.00
2018-02-13T12:16:58.852Z,67.80
2018-02-13T12:19:26.789Z,72.40
2018-02-13T12:21:54.851Z,70.90
2018-02-13T12:24:25.182Z,68.80
2018-02-13T12:26:53.730Z,58.60
2018-02-13T12:29:21.890Z,62.90
2018-02-13T12:31:50.050Z,61.90
2018-02-13T12:34:18.070Z,67.00
2018-02-13T12:36:45.788Z,63.20
2018-02-13T12:39:14.271Z,63.00
2018-02-13T12:41:42.095Z,63.00
2018-02-13T12:44:09.974Z,68.00
2018-02-13T12:46:37.914Z,69.40
2018-02-13T12:49:05.874Z,72.70
2018-02-13T12:51:33.597Z,66.50
2018-02-13T12:54:01.558Z,62.60
2018-02-13T12:56:29.534Z,64.20
2018-02-13T12:58:57.395Z,60.00
2018-02-13T13:01:26.049Z,56.90
2018-02-13T13:03:54.228Z,57.00
2018-02-13T13:06:22.108Z,62.40
2018-02-13T13:08:50.108Z,64.90
2018-02-13T13:11:17.887Z,65.30
2018-02-13T13:13:45.889Z,58.30
2018-02-13T13:16:13.787Z,59.20
2018-02-13T13:18:41.887Z,59.80
2018-02-13T13:21:09.656Z,63.20
2018-02-13T13:26:09.910Z,61.40
2018-02-13T13:28:37.766Z,63.60
2018-02-13T13:31:05.886Z,62.50
2018-02-13T13:33:34.366Z,62.00
2018-02-13T13:36:02.190Z,69.60
2018-02-13T13:38:31.049Z,68.20
2018-02-13T13:40:59.609Z,68.80
2018-02-13T13:43:27.400Z,68.80
2018-02-13T13:45:55.147Z,68.70
2018-02-13T13:48:22.989Z,68.00
2018-02-13T13:50:52.610Z,68.00
2018-02-13T13:53:20.619Z,67.20
2018-02-13T13:55:48.449Z,67.90
2018-02-13T13:58:16.309Z,68.90
2018-02-13T14:00:44.189Z,68.50
2018-02-13T14:03:11.929Z,67.60
2018-02-13T14:05:39.850Z,66.40
2018-02-13T14:08:07.751Z,67.10
2018-02-13T14:10:35.590Z,65.70
2018-02-13T14:13:03.834Z,65.30
2018-02-13T14:15:31.690Z,65.70
2018-02-13T14:17:59.589Z,66.10
2018-02-13T14:20:28.128Z,66.80
2018-02-13T14:22:56.147Z,67.80
2018-02-13T14:25:23.889Z,68.10
2018-02-13T14:27:51.727Z,67.70
2018-02-13T14:30:19.669Z,69.10
2018-02-13T14:32:47.489Z,68.80
2018-02-13T14:35:15.308Z,69.40
2018-02-13T14:37:43.049Z,69.50
2018-02-13T14:40:10.835Z,69.70
2018-02-13T14:42:38.581Z,70.70
2018-02-13T14:45:06.349Z,70.20
2018-02-13T14:47:34.092Z,69.90
2018-02-13T14:50:02.051Z,68.50
2018-02-13T14:52:29.807Z,66.20
2018-02-13T14:54:57.708Z,67.50
2018-02-13T14:57:26.248Z,66.50
2018-02-13T14:59:54.936Z,67.10
2018-02-13T15:02:22.867Z,67.00
2018-02-13T15:04:50.845Z,67.40
2018-02-13T15:07:19.011Z,69.10
2018-02-13T15:09:46.867Z,67.00
2018-02-13T15:12:14.691Z,67.90
2018-02-13T15:14:46.247Z,69.80
2018-02-13T15:19:57.771Z,64.90
2018-02-13T15:22:25.549Z,67.00
2018-02-13T15:24:53.306Z,66.50
2018-02-13T15:27:21.098Z,68.60
2018-02-13T15:29:48.931Z,71.20
2018-02-13T15:32:16.711Z,70.20
2018-02-13T15:34:44.591Z,70.90
2018-02-13T15:37:12.357Z,71.80
2018-02-13T15:39:40.992Z,70.60
2018-02-13T15:42:08.828Z,70.30
2018-02-13T15:44:36.609Z,70.80
2018-02-13T15:47:06.908Z,70.20
2018-02-13T15:49:34.892Z,70.90
2018-02-13T15:52:02.651Z,72.30
2018-02-13T15:54:30.494Z,73.30
2018-02-13T15:56:58.291Z,71.90
2018-02-13T15:59:26.142Z,71.40
2018-02-13T16:01:54.215Z,70.90
2018-02-13T16:04:21.992Z,70.80
2018-02-13T16:06:49.930Z,71.40
2018-02-13T16:09:17.727Z,71.90
2018-02-13T16:11:45.488Z,71.90
2018-02-13T16:14:13.248Z,72.10
2018-02-13T16:16:41.048Z,71.80
2018-02-13T16:19:09.075Z,70.10
2018-02-13T16:21:36.907Z,70.20
2018-02-13T16:24:04.768Z,69.60
2018-02-13T16:26:32.609Z,70.30
2018-02-13T16:29:00.369Z,70.90
2018-02-13T16:31:28.189Z,71.10
2018-02-13T16:33:56.047Z,68.10
2018-02-13T16:36:23.927Z,70.40
2018-02-13T16:38:51.747Z,70.60
2018-02-13T16:41:19.549Z,71.30
2018-02-13T16:43:47.336Z,71.80
2018-02-13T16:46:15.129Z,70.70
2018-02-13T16:48:42.928Z,70.80
2018-02-13T16:51:10.755Z,70.90
2018-02-13T16:53:39.348Z,70.10
2018-02-13T16:56:07.889Z,70.90
2018-02-13T16:58:36.495Z,70.90
2018-02-13T17:01:04.316Z,70.90
2018-02-13T17:03:32.130Z,70.60
2018-02-13T17:08:31.968Z,68.90
2018-02-13T17:10:59.808Z,70.60
2018-02-13T17:13:27.648Z,71.80
2018-02-13T17:15:56.207Z,71.70
2018-02-13T17:18:23.987Z,71.70
2018-02-13T17:20:51.730Z,72.20
2018-02-13T17:23:19.570Z,72.30
2018-02-13T17:25:47.308Z,69.30
2018-02-13T17:28:15.289Z,69.70
2018-02-13T17:30:43.168Z,71.60
2018-02-13T17:33:11.027Z,71.60
2018-02-13T17:35:39.027Z,70.70
2018-02-13T17:38:06.909Z,71.60
2018-02-13T17:40:34.668Z,71.40
2018-02-13T17:43:02.447Z,71.80
2018-02-13T17:45:30.209Z,71.70
2018-02-13T17:47:58.367Z,71.70
2018-02-13T17:50:26.525Z,74.50
2018-02-13T17:52:54.688Z,75.70
2018-02-13T17:55:22.547Z,76.90
2018-02-13T17:57:50.386Z,77.40
2018-02-13T18:00:18.807Z,77.70
2018-02-13T18:02:47.325Z,78.60
2018-02-13T18:05:15.974Z,79.10
2018-02-13T18:07:44.347Z,79.10
2018-02-13T18:10:12.887Z,79.80
2018-02-13T18:12:40.668Z,79.10
2018-02-13T18:15:08.521Z,78.90
2018-02-13T18:17:36.608Z,78.70
2018-02-13T18:20:04.334Z,79.20
2018-02-13T18:22:32.318Z,79.80
2018-02-13T18:25:00.081Z,80.30
2018-02-13T18:27:27.826Z,80.40
2018-02-13T18:29:55.667Z,78.80
2018-02-13T18:32:23.488Z,81.30
2018-02-13T18:34:52.010Z,81.20
2018-02-13T18:37:19.791Z,81.10
2018-02-13T18:39:47.618Z,78.30
2018-02-13T18:42:16.092Z,74.30
2018-02-13T18:44:43.887Z,78.90
2018-02-13T18:47:13.148Z,82.70
2018-02-13T18:49:41.084Z,82.30
2018-02-13T18:54:37.467Z,82.00
2018-02-13T18:57:06.555Z,85.00
2018-02-13T18:59:36.390Z,86.70
2018-02-13T19:02:04.472Z,87.20
2018-02-13T19:10:13.190Z,84.10
2018-02-13T19:12:41.552Z,82.70
2018-02-13T19:15:09.537Z,84.60
2018-02-13T19:17:37.607Z,86.60
2018-02-13T19:20:06.488Z,87.80
2018-02-13T19:22:34.670Z,88.40
2018-02-13T19:25:03.001Z,88.70
2018-02-13T19:27:31.151Z,88.30
2018-02-13T19:29:59.989Z,88.00
2018-02-13T19:32:29.309Z,87.50
2018-02-13T19:34:57.214Z,86.20
2018-02-13T19:37:25.189Z,84.50
2018-02-13T19:39:53.071Z,83.50
2018-02-13T19:42:21.197Z,86.10
2018-02-13T19:44:49.737Z,83.50
2018-02-13T19:47:17.675Z,80.00
2018-02-13T19:49:45.894Z,79.00
2018-02-13T19:52:14.949Z,86.20
2018-02-13T19:54:42.769Z,86.20
2018-02-13T19:57:11.593Z,87.80
2018-02-13T19:59:39.472Z,87.10
2018-02-13T20:02:07.326Z,86.90
2018-02-13T20:04:36.457Z,87.10
2018-02-13T20:07:05.065Z,84.60
2018-02-13T20:09:33.888Z,85.80
2018-02-13T20:12:02.532Z,85.80
2018-02-13T20:14:32.476Z,88.00
2018-02-13T20:17:00.410Z,88.10
2018-02-13T20:19:28.606Z,85.30
2018-02-13T20:21:57.647Z,81.60
2018-02-13T20:24:26.177Z,81.50
2018-02-13T20:26:54.113Z,80.60
2018-02-13T20:29:22.092Z,80.00
2018-02-13T20:31:50.927Z,80.30
2018-02-13T20:34:18.848Z,80.30
2018-02-13T20:36:46.800Z,82.40
2018-02-13T20:39:17.125Z,86.40
2018-02-13T20:41:45.957Z,86.40
2018-02-13T20:44:14.428Z,88.00
2018-02-13T20:46:42.248Z,88.60
2018-02-13T20:49:10.269Z,86.00
2018-02-13T20:51:38.149Z,84.00
2018-02-13T20:54:06.116Z,85.90
2018-02-13T20:56:34.248Z,85.30
2018-02-13T20:59:02.085Z,83.50
2018-02-13T21:01:29.895Z,83.30
2018-02-13T21:03:58.353Z,85.00
2018-02-13T21:06:26.368Z,85.00
2018-02-13T21:08:57.800Z,85.50
2018-02-13T21:11:27.358Z,84.00
2018-02-13T21:13:55.519Z,85.90
2018-02-13T21:16:23.252Z,88.10
2018-02-13T21:18:51.215Z,89.50
2018-02-13T21:21:19.008Z,89.70
2018-02-13T21:23:46.828Z,90.10
2018-02-13T21:26:14.575Z,90.00
2018-02-13T21:28:42.328Z,89.40
2018-02-13T21:31:10.068Z,88.30
2018-02-13T21:33:38.593Z,87.70
2018-02-13T21:36:06.489Z,87.80
2018-02-13T21:38:35.030Z,87.20
2018-02-13T21:41:03.656Z,86.20
2018-02-13T21:43:31.415Z,86.30
2018-02-13T21:45:59.171Z,85.50
2018-02-13T21:48:27.713Z,83.90
2018-02-13T21:50:55.472Z,83.90
2018-02-13T21:53:23.275Z,84.00
2018-02-13T21:55:52.573Z,82.80
2018-02-13T21:58:20.408Z,80.20
2018-02-13T22:00:48.389Z,76.70
2018-02-13T22:05:48.068Z,79.40
2018-02-13T22:08:17.352Z,79.50
2018-02-13T22:10:47.046Z,78.50
2018-02-13T22:13:15.172Z,78.60
2018-02-13T22:15:43.408Z,78.60
2018-02-13T22:18:11.272Z,77.90
2018-02-13T22:20:39.772Z,79.50
2018-02-13T22:23:07.688Z,78.70
2018-02-13T22:25:35.548Z,79.60
2018-02-13T22:28:03.267Z,79.60
2018-02-13T22:30:31.006Z,79.00
2018-02-13T22:32:58.869Z,79.50
2018-02-13T22:35:26.808Z,82.00
2018-02-13T22:37:55.750Z,82.00
2018-02-13T22:40:23.570Z,81.90
2018-02-13T22:42:52.148Z,81.90
2018-02-13T22:45:19.968Z,81.90
2018-02-13T22:47:47.786Z,82.20
2018-02-13T22:50:16.047Z,82.20
2018-02-13T22:52:43.946Z,81.60
2018-02-13T22:55:11.870Z,79.90
2018-02-13T22:57:40.007Z,80.50
2018-02-13T23:00:10.884Z,80.50
2018-02-13T23:02:39.090Z,79.60
2018-02-13T23:05:07.115Z,79.20
2018-02-13T23:07:35.090Z,78.00
2018-02-13T23:10:02.930Z,79.00
2018-02-13T23:12:31.598Z,78.90
2018-02-13T23:14:59.430Z,78.90
2018-02-13T23:17:27.289Z,79.60
2018-02-13T23:19:55.199Z,79.50
2018-02-13T23:22:23.013Z,78.20
2018-02-13T23:24:50.849Z,79.40
2018-02-13T23:27:18.609Z,79.90
2018-02-13T23:29:46.768Z,79.20
2018-02-13T23:32:14.751Z,79.50
2018-02-13T23:34:42.709Z,79.50
2018-02-13T23:37:10.490Z,79.40
2018-02-13T23:39:38.392Z,80.60
2018-02-13T23:42:06.708Z,81.20
2018-02-13T23:44:35.489Z,80.20
2018-02-13T23:47:03.369Z,80.20
2018-02-13T23:49:31.387Z,76.50
2018-02-13T23:51:59.248Z,72.90
2018-02-13T23:54:27.175Z,73.30
2018-02-13T23:56:55.068Z,74.10
2018-02-13T23:59:22.867Z,73.50
